createdAt,value
2023-02-19T00:00:22.043Z,7.30
2023-02-19T00:02:52.830Z,7.20
2023-02-19T00:05:23.505Z,6.30
2023-02-19T00:07:53.918Z,6.80
2023-02-19T00:10:35.450Z,6.60
2023-02-19T00:13:06.030Z,7.50
2023-02-19T00:15:36.907Z,6.40
2023-02-19T00:18:07.914Z,7.50
2023-02-19T00:20:38.527Z,6.10
2023-02-19T00:23:09.064Z,6.60
2023-02-19T00:25:40.397Z,6.20
2023-02-19T00:28:10.997Z,6.80
2023-02-19T00:30:41.526Z,6.10
2023-02-19T00:33:11.988Z,5.90
2023-02-19T00:35:42.470Z,5.80
2023-02-19T00:38:13.109Z,5.80
2023-02-19T00:40:43.474Z,5.90
2023-02-19T00:43:13.908Z,5.80
2023-02-19T00:45:44.620Z,4.80
2023-02-19T00:48:15.374Z,5.60
2023-02-19T00:50:46.130Z,5.50
2023-02-19T00:53:16.930Z,5.30
2023-02-19T00:55:47.374Z,5.30
2023-02-19T00:58:17.764Z,5.60
2023-02-19T01:00:48.368Z,5.40
2023-02-19T01:03:23.646Z,5.30
2023-02-19T01:05:55.769Z,5.00
2023-02-19T01:08:27.345Z,4.80
2023-02-19T01:10:57.993Z,4.80
2023-02-19T01:13:31.584Z,4.50
2023-02-19T01:16:07.529Z,4.30
2023-02-19T01:18:38.269Z,4.50
2023-02-19T01:21:11.467Z,4.00
2023-02-19T01:23:42.567Z,4.20
2023-02-19T01:26:18.735Z,4.40
2023-02-19T01:28:50.373Z,4.80
2023-02-19T01:31:23.099Z,4.30
2023-02-19T01:33:58.119Z,4.30
2023-02-19T01:36:29.878Z,4.50
2023-02-19T01:39:03.928Z,4.30
2023-02-19T01:41:38.883Z,4.40
2023-02-19T01:44:24.185Z,4.80
2023-02-19T01:46:57.582Z,5.00
2023-02-19T01:49:31.168Z,4.60
2023-02-19T01:52:07.100Z,5.00
2023-02-19T01:54:42.300Z,4.20
2023-02-19T01:57:18.245Z,4.60
2023-02-19T01:59:55.064Z,4.50
2023-02-19T02:02:28.566Z,4.80
2023-02-19T02:05:01.437Z,4.90
2023-02-19T02:07:50.005Z,3.80
2023-02-19T02:10:20.993Z,4.40
2023-02-19T02:12:53.526Z,4.50
2023-02-19T02:15:30.737Z,4.40
2023-02-19T02:18:07.753Z,4.10
2023-02-19T02:21:04.559Z,4.20
2023-02-19T02:23:48.385Z,4.30
2023-02-19T02:26:36.654Z,3.80
2023-02-19T02:31:59.532Z,4.60
2023-02-19T02:34:35.856Z,3.90
2023-02-19T02:37:17.696Z,3.40
2023-02-19T02:39:49.771Z,4.00
2023-02-19T02:42:29.995Z,3.00
2023-02-19T02:45:39.608Z,2.90
2023-02-19T02:48:44.377Z,3.00
2023-02-19T02:51:21.723Z,2.60
2023-02-19T02:54:19.061Z,2.70
2023-02-19T02:56:51.568Z,2.90
2023-02-19T02:59:26.104Z,2.80
2023-02-19T03:02:14.547Z,2.40
2023-02-19T03:05:12.396Z,2.30
2023-02-19T03:07:50.773Z,2.40
2023-02-19T03:10:26.327Z,2.10
2023-02-19T03:13:17.701Z,2.40
2023-02-19T03:19:02.047Z,1.80
2023-02-19T03:21:38.272Z,2.20
2023-02-19T03:24:31.298Z,2.00
2023-02-19T03:27:05.226Z,2.00
2023-02-19T03:29:43.245Z,2.00
2023-02-19T03:32:38.086Z,2.20
2023-02-19T03:35:14.774Z,1.90
2023-02-19T03:37:50.664Z,1.90
2023-02-19T03:40:22.786Z,2.00
2023-02-19T03:43:04.152Z,2.00
2023-02-19T03:48:26.299Z,2.20
2023-02-19T03:51:05.308Z,1.70
2023-02-19T03:53:43.643Z,2.00
2023-02-19T03:56:21.747Z,2.20
2023-02-19T03:59:00.251Z,1.80
2023-02-19T04:01:38.993Z,2.30
2023-02-19T04:04:15.095Z,2.10
2023-02-19T04:06:52.684Z,1.90
2023-02-19T04:09:25.403Z,2.40
2023-02-19T04:12:03.085Z,2.30
2023-02-19T04:14:44.915Z,2.20
2023-02-19T04:17:26.217Z,2.30
2023-02-19T04:19:59.981Z,2.60
2023-02-19T04:22:33.975Z,2.60
2023-02-19T04:25:04.711Z,2.20
2023-02-19T04:27:39.278Z,3.00
2023-02-19T04:30:14.278Z,3.00
2023-02-19T04:32:47.456Z,3.20
2023-02-19T04:35:18.031Z,2.90
2023-02-19T04:37:51.854Z,3.30
2023-02-19T04:40:22.538Z,3.10
2023-02-19T04:42:53.815Z,3.60
2023-02-19T04:45:43.260Z,3.80
2023-02-19T04:48:16.258Z,3.30
2023-02-19T04:50:47.315Z,3.60
2023-02-19T04:53:18.844Z,4.10
2023-02-19T04:58:19.687Z,3.80
2023-02-19T05:00:54.131Z,4.10
2023-02-19T05:03:28.041Z,3.50
2023-02-19T05:05:58.674Z,4.20
2023-02-19T05:08:31.684Z,5.30
2023-02-19T05:11:03.923Z,4.50
2023-02-19T05:13:35.033Z,4.90
2023-02-19T05:16:08.582Z,4.20
2023-02-19T05:18:39.196Z,4.60
2023-02-19T05:21:15.064Z,4.30
2023-02-19T05:23:45.937Z,4.90
2023-02-19T05:26:18.694Z,5.00
2023-02-19T05:28:51.152Z,5.00
2023-02-19T05:31:22.825Z,5.60
2023-02-19T05:34:03.570Z,6.00
2023-02-19T05:36:40.415Z,6.30
2023-02-19T05:39:14.548Z,5.30
2023-02-19T05:41:47.818Z,6.40
2023-02-19T05:44:21.131Z,5.60
2023-02-19T05:46:53.982Z,6.10
2023-02-19T05:49:24.433Z,5.70
2023-02-19T05:51:58.411Z,5.70
2023-02-19T05:54:31.008Z,5.50
2023-02-19T05:57:01.947Z,5.90
2023-02-19T05:59:32.801Z,5.50
2023-02-19T06:02:12.803Z,6.20
2023-02-19T06:04:43.664Z,5.20
2023-02-19T06:07:14.378Z,6.00
2023-02-19T06:09:47.715Z,5.80
2023-02-19T06:12:18.400Z,5.80
2023-02-19T06:14:52.479Z,5.70
2023-02-19T06:17:24.245Z,5.40
2023-02-19T06:19:58.177Z,6.20
2023-02-19T06:22:29.196Z,5.50
2023-02-19T06:24:59.821Z,6.00
2023-02-19T06:27:33.851Z,6.00
2023-02-19T06:30:07.859Z,5.80
2023-02-19T06:32:38.973Z,6.40
2023-02-19T06:35:10.355Z,6.10
2023-02-19T06:37:40.941Z,7.20
2023-02-19T06:40:14.130Z,6.60
2023-02-19T06:43:18.952Z,6.80
2023-02-19T06:45:55.046Z,6.20
2023-02-19T06:48:28.604Z,6.90
2023-02-19T06:50:59.760Z,5.60
2023-02-19T06:53:34.799Z,6.30
2023-02-19T06:56:07.895Z,6.10
2023-02-19T06:58:40.142Z,6.20
2023-02-19T07:01:14.786Z,6.30
2023-02-19T07:03:50.853Z,7.50
2023-02-19T07:06:23.710Z,5.60
2023-02-19T07:12:08.646Z,6.00
2023-02-19T07:14:39.278Z,6.20
2023-02-19T07:17:20.943Z,5.40
2023-02-19T07:20:33.203Z,6.10
2023-02-19T07:23:13.531Z,7.00
2023-02-19T07:25:55.311Z,6.60
2023-02-19T07:28:30.490Z,6.40
2023-02-19T07:31:29.371Z,6.10
2023-02-19T07:34:00.772Z,6.60
2023-02-19T07:36:32.116Z,6.40
2023-02-19T07:39:33.290Z,6.40
2023-02-19T07:42:24.011Z,6.60
2023-02-19T07:45:00.725Z,6.40
2023-02-19T07:51:08.870Z,7.00
2023-02-19T07:54:23.350Z,5.90
2023-02-19T07:57:16.028Z,5.80
2023-02-19T07:59:54.888Z,5.70
2023-02-19T08:02:47.544Z,5.70
2023-02-19T08:05:18.425Z,5.80
2023-02-19T08:07:50.491Z,6.10
2023-02-19T08:10:39.482Z,6.10
2023-02-19T08:13:22.396Z,5.40
2023-02-19T08:15:57.779Z,5.30
2023-02-19T08:18:41.726Z,6.40
2023-02-19T08:21:13.083Z,5.70
2023-02-19T08:23:48.379Z,5.30
2023-02-19T08:26:23.791Z,5.20
2023-02-19T08:29:06.004Z,5.50
2023-02-19T08:31:37.274Z,5.50
2023-02-19T08:34:10.545Z,5.30
2023-02-19T08:36:42.640Z,5.80
2023-02-19T08:39:13.102Z,5.60
2023-02-19T08:41:47.966Z,5.80
2023-02-19T08:44:18.729Z,6.00
2023-02-19T08:46:49.429Z,5.30
2023-02-19T08:49:20.354Z,5.90
2023-02-19T08:51:53.453Z,5.20
2023-02-19T08:54:37.279Z,5.50
2023-02-19T08:57:29.180Z,5.80
2023-02-19T09:00:00.160Z,5.10
2023-02-19T09:02:33.277Z,5.20
2023-02-19T09:05:05.593Z,5.00
2023-02-19T09:07:36.516Z,4.70
2023-02-19T09:10:11.367Z,5.10
2023-02-19T09:12:44.667Z,4.80
2023-02-19T09:15:18.650Z,4.40
2023-02-19T09:17:53.909Z,4.30
2023-02-19T09:20:24.525Z,4.70
2023-02-19T09:23:06.075Z,4.20
2023-02-19T09:25:40.812Z,3.70
2023-02-19T09:28:12.222Z,3.50
2023-02-19T09:30:42.956Z,3.70
2023-02-19T09:33:23.554Z,3.60
2023-02-19T09:35:59.459Z,3.30
2023-02-19T09:38:31.026Z,3.70
2023-02-19T09:43:31.524Z,3.80
2023-02-19T09:46:24.189Z,4.00
2023-02-19T09:48:56.954Z,4.80
2023-02-19T09:51:29.750Z,4.70
2023-02-19T09:54:00.908Z,4.30
2023-02-19T09:56:32.051Z,4.20
2023-02-19T09:59:02.699Z,4.40
2023-02-19T10:01:39.910Z,4.30
2023-02-19T10:04:13.550Z,3.70
2023-02-19T10:06:44.624Z,4.60
2023-02-19T10:09:25.953Z,3.70
2023-02-19T10:11:58.930Z,3.40
2023-02-19T10:14:35.542Z,3.50
2023-02-19T10:17:07.634Z,3.20
2023-02-19T10:19:40.499Z,3.40
2023-02-19T10:22:12.967Z,3.50
2023-02-19T10:24:45.755Z,3.60
2023-02-19T10:27:17.317Z,3.70
2023-02-19T10:29:50.190Z,3.50
2023-02-19T10:32:24.128Z,3.70
2023-02-19T10:48:30.693Z,3.20
2023-02-19T10:51:07.238Z,3.00
2023-02-19T10:53:49.311Z,3.20
2023-02-19T10:56:28.882Z,3.00
2023-02-19T10:59:22.348Z,3.20
2023-02-19T11:02:01.649Z,3.00
2023-02-19T11:04:38.080Z,2.90
2023-02-19T11:07:16.161Z,3.00
2023-02-19T11:09:53.641Z,3.20
2023-02-19T11:12:30.270Z,2.90
2023-02-19T11:15:25.178Z,2.80
2023-02-19T11:18:01.164Z,2.90
2023-02-19T11:20:32.285Z,2.60
2023-02-19T11:23:16.009Z,2.90
2023-02-19T11:25:56.464Z,2.50
2023-02-19T11:28:36.949Z,2.40
2023-02-19T11:31:25.956Z,2.60
2023-02-19T11:33:59.995Z,2.30
2023-02-19T11:36:36.107Z,2.90
2023-02-19T11:39:22.513Z,2.50
2023-02-19T11:42:13.663Z,3.20
2023-02-19T11:45:01.280Z,2.60
2023-02-19T11:47:48.642Z,2.60
2023-02-19T11:50:26.018Z,2.70
2023-02-19T11:53:14.929Z,2.30
2023-02-19T11:55:59.170Z,2.70
2023-02-19T11:59:00.877Z,2.50
2023-02-19T12:01:54.929Z,2.20
2023-02-19T12:05:02.053Z,2.60
2023-02-19T12:08:08.375Z,2.10
2023-02-19T12:11:19.244Z,2.40
2023-02-19T12:14:41.578Z,2.10
2023-02-19T12:17:35.968Z,2.10
2023-02-19T12:20:18.753Z,1.90
2023-02-19T12:23:01.200Z,1.90
2023-02-19T12:25:50.477Z,2.10
2023-02-19T12:28:49.222Z,2.00
2023-02-19T12:32:02.233Z,2.10
2023-02-19T12:35:09.151Z,1.90
2023-02-19T12:37:48.752Z,1.90
2023-02-19T12:40:29.527Z,2.40
2023-02-19T12:43:08.718Z,2.10
2023-02-19T12:45:46.392Z,1.90
2023-02-19T12:48:26.988Z,1.90
2023-02-19T12:51:02.381Z,2.10
2023-02-19T12:53:41.002Z,2.10
2023-02-19T12:56:18.207Z,2.10
2023-02-19T12:59:02.364Z,2.10
2023-02-19T13:01:36.965Z,2.90
2023-02-19T13:04:35.393Z,2.40
2023-02-19T13:07:11.997Z,2.40
2023-02-19T13:09:47.804Z,2.10
2023-02-19T13:12:24.789Z,2.60
2023-02-19T13:15:01.716Z,2.80
2023-02-19T13:17:41.858Z,3.00
2023-02-19T13:20:21.529Z,2.30
2023-02-19T13:23:20.958Z,2.80
2023-02-19T13:26:17.230Z,2.40
2023-02-19T13:29:03.629Z,2.20
2023-02-19T13:31:52.354Z,2.50
2023-02-19T13:34:33.433Z,2.30
2023-02-19T13:37:05.385Z,2.70
2023-02-19T13:39:36.735Z,2.50
2023-02-19T13:44:39.391Z,2.10
2023-02-19T13:47:47.964Z,2.20
2023-02-19T13:50:24.072Z,2.00
2023-02-19T13:52:58.525Z,2.10
2023-02-19T13:55:52.745Z,2.40
2023-02-19T13:58:57.933Z,2.30
2023-02-19T14:02:12.280Z,2.50
2023-02-19T14:04:52.179Z,2.20
2023-02-19T14:08:01.464Z,2.40
2023-02-19T14:11:02.172Z,2.00
2023-02-19T14:14:06.846Z,2.50
2023-02-19T14:16:52.567Z,2.20
2023-02-19T14:19:52.107Z,3.30
2023-02-19T14:23:09.651Z,2.30
2023-02-19T14:26:04.357Z,1.90
2023-02-19T14:28:44.016Z,2.30
2023-02-19T14:31:20.774Z,2.80
2023-02-19T14:34:06.606Z,2.60
2023-02-19T14:36:45.292Z,1.90
2023-02-19T14:39:19.050Z,1.90
2023-02-19T14:42:04.420Z,2.00
2023-02-19T14:44:57.149Z,2.40
2023-02-19T14:47:35.043Z,1.90
2023-02-19T14:50:10.405Z,2.10
2023-02-19T14:52:45.694Z,1.90
2023-02-19T14:55:30.449Z,2.00
2023-02-19T14:58:03.389Z,2.40
2023-02-19T15:00:38.379Z,1.70
2023-02-19T15:03:35.243Z,2.30
2023-02-19T15:06:14.053Z,2.60
2023-02-19T15:08:50.831Z,1.90
2023-02-19T15:11:27.163Z,2.80
2023-02-19T15:14:03.026Z,2.30
2023-02-19T15:18:15.795Z,2.70
2023-02-19T15:19:39.680Z,2.40
2023-02-19T15:22:12.955Z,2.40
2023-02-19T15:24:48.767Z,2.60
2023-02-19T15:27:23.739Z,2.90
2023-02-19T15:29:55.449Z,2.50
2023-02-19T15:32:28.540Z,2.70
2023-02-19T15:35:00.996Z,2.60
2023-02-19T15:37:33.978Z,2.50
2023-02-19T15:40:09.525Z,2.70
2023-02-19T15:42:40.247Z,2.50
2023-02-19T15:45:22.592Z,2.50
2023-02-19T15:47:56.375Z,3.10
2023-02-19T15:50:32.127Z,3.00
2023-02-19T15:53:10.231Z,3.10
2023-02-19T15:56:05.137Z,2.80
2023-02-19T15:58:42.673Z,3.20
2023-02-19T16:01:21.596Z,2.80
2023-02-19T16:03:53.920Z,2.90
2023-02-19T16:06:26.386Z,2.50
2023-02-19T16:09:05.794Z,2.50
2023-02-19T16:11:53.363Z,2.10
2023-02-19T16:14:32.071Z,1.80
2023-02-19T16:17:16.216Z,2.00
2023-02-19T16:19:52.858Z,1.90
2023-02-19T16:22:43.615Z,1.80
2023-02-19T16:25:27.247Z,2.00
2023-02-19T16:27:59.164Z,2.00
2023-02-19T16:30:36.299Z,1.80
2023-02-19T16:33:37.653Z,2.20
2023-02-19T16:36:36.062Z,2.20
2023-02-19T16:39:26.363Z,2.60
2023-02-19T16:42:15.363Z,2.50
2023-02-19T16:47:34.203Z,3.30
2023-02-19T16:50:16.229Z,2.90
2023-02-19T16:52:57.970Z,3.20
2023-02-19T16:55:49.221Z,3.00
2023-02-19T16:58:22.744Z,7.20
2023-02-19T17:00:53.684Z,3.10
2023-02-19T17:03:35.489Z,3.60
2023-02-19T17:06:06.871Z,3.10
2023-02-19T17:11:29.346Z,4.60
2023-02-19T17:14:00.057Z,3.20
2023-02-19T17:16:39.406Z,4.20
2023-02-19T17:19:17.063Z,3.00
2023-02-19T17:22:08.376Z,3.10
2023-02-19T17:24:38.794Z,3.40
2023-02-19T17:27:14.867Z,3.70
2023-02-19T17:29:53.219Z,3.60
2023-02-19T17:32:24.432Z,4.50
2023-02-19T17:34:57.937Z,4.50
2023-02-19T17:37:28.429Z,3.50
2023-02-19T17:39:59.089Z,3.70
2023-02-19T17:42:29.747Z,4.20
2023-02-19T17:45:00.444Z,3.70
2023-02-19T17:47:33.126Z,4.80
2023-02-19T17:50:27.331Z,3.80
2023-02-19T17:52:58.248Z,3.40
2023-02-19T17:55:49.072Z,4.30
2023-02-19T17:58:19.842Z,3.70
2023-02-19T18:00:50.506Z,3.60
2023-02-19T18:03:20.995Z,4.10
2023-02-19T18:05:51.754Z,3.70
2023-02-19T18:08:22.281Z,3.70
2023-02-19T18:10:53.162Z,3.70
2023-02-19T18:13:23.735Z,3.50
2023-02-19T18:15:54.890Z,3.40
2023-02-19T18:20:54.834Z,3.50
2023-02-19T18:23:35.439Z,3.90
2023-02-19T18:26:07.550Z,3.60
2023-02-19T18:28:38.866Z,3.50
2023-02-19T18:31:12.789Z,4.00
2023-02-19T18:33:43.498Z,3.80
2023-02-19T18:36:21.706Z,3.70
2023-02-19T18:38:54.540Z,3.80
2023-02-19T18:41:25.311Z,3.80
2023-02-19T18:43:55.950Z,3.50
2023-02-19T18:46:46.783Z,4.40
2023-02-19T18:49:18.007Z,4.10
2023-02-19T18:52:09.469Z,5.40
2023-02-19T18:57:19.736Z,5.90
2023-02-19T18:59:51.151Z,6.00
2023-02-19T19:02:22.192Z,5.60
2023-02-19T19:04:57.139Z,5.80
2023-02-19T19:07:37.988Z,6.60
2023-02-19T19:10:11.593Z,6.70
2023-02-19T19:12:42.052Z,6.20
2023-02-19T19:15:32.975Z,5.80
2023-02-19T19:18:06.838Z,6.20
2023-02-19T19:20:40.517Z,5.50
2023-02-19T19:23:11.250Z,5.20
2023-02-19T19:25:44.835Z,4.90
2023-02-19T19:28:15.551Z,5.30
2023-02-19T19:30:46.116Z,4.70
2023-02-19T19:33:20.382Z,4.30
2023-02-19T19:35:50.873Z,4.50
2023-02-19T19:38:21.672Z,4.60
2023-02-19T19:40:52.132Z,5.20
2023-02-19T19:43:22.806Z,4.60
2023-02-19T19:45:53.668Z,4.20
2023-02-19T19:48:24.749Z,4.50
2023-02-19T19:51:16.320Z,3.90
2023-02-19T19:53:49.540Z,4.40
2023-02-19T19:56:20.329Z,4.30
2023-02-19T19:58:51.666Z,4.60
2023-02-19T20:03:52.675Z,4.50
2023-02-19T20:06:30.880Z,4.00
2023-02-19T20:09:01.846Z,4.60
2023-02-19T20:11:34.674Z,4.50
2023-02-19T20:14:05.280Z,4.70
2023-02-19T20:16:39.050Z,4.40
2023-02-19T20:19:12.208Z,4.40
2023-02-19T20:22:02.961Z,4.40
2023-02-19T20:24:33.688Z,3.80
2023-02-19T20:27:04.577Z,4.70
2023-02-19T20:29:36.160Z,4.30
2023-02-19T20:32:09.543Z,4.80
2023-02-19T20:34:40.770Z,4.10
2023-02-19T20:37:11.509Z,4.70
2023-02-19T20:39:44.997Z,4.80
2023-02-19T20:42:17.021Z,4.40
2023-02-19T20:44:47.861Z,5.20
2023-02-19T20:47:18.908Z,5.30
2023-02-19T20:49:51.727Z,4.30
2023-02-19T20:52:24.401Z,4.50
2023-02-19T20:55:04.209Z,4.30
2023-02-19T20:57:37.900Z,4.60
2023-02-19T21:00:12.893Z,5.10
2023-02-19T21:02:43.935Z,4.80
2023-02-19T21:05:17.588Z,5.50
2023-02-19T21:07:48.800Z,6.20
2023-02-19T21:10:19.608Z,5.60
2023-02-19T21:12:54.383Z,5.80
2023-02-19T21:15:25.523Z,7.10
2023-02-19T21:17:56.401Z,6.10
2023-02-19T21:20:26.923Z,6.80
2023-02-19T21:22:57.671Z,5.20
2023-02-19T21:25:28.427Z,6.40
2023-02-19T21:27:58.962Z,6.50
2023-02-19T21:30:32.187Z,5.90
2023-02-19T21:33:02.967Z,5.90
2023-02-19T21:35:33.901Z,5.70
2023-02-19T21:38:04.741Z,6.80
2023-02-19T21:40:35.448Z,5.70
2023-02-19T21:43:05.986Z,6.00
2023-02-19T21:45:36.508Z,6.40
2023-02-19T21:48:18.212Z,6.20
2023-02-19T21:50:48.966Z,6.00
2023-02-19T21:53:22.635Z,6.40
2023-02-19T21:55:58.622Z,6.10
2023-02-19T21:58:29.635Z,5.60
2023-02-19T22:01:00.429Z,6.60
2023-02-19T22:03:31.030Z,5.80
2023-02-19T22:06:03.715Z,4.80
2023-02-19T22:08:34.203Z,6.80
2023-02-19T22:11:07.522Z,4.90
2023-02-19T22:13:39.581Z,5.60
2023-02-19T22:16:10.764Z,5.70
2023-02-19T22:21:10.547Z,6.20
2023-02-19T22:23:43.887Z,6.60
2023-02-19T22:26:20.112Z,5.20
2023-02-19T22:28:51.014Z,5.10
2023-02-19T22:31:23.666Z,5.60
2023-02-19T22:33:54.954Z,5.60
2023-02-19T22:36:27.716Z,4.90
2023-02-19T22:38:58.392Z,5.10
2023-02-19T22:41:29.648Z,5.30
2023-02-19T22:44:03.543Z,5.10
2023-02-19T22:46:34.159Z,5.10
2023-02-19T22:49:06.791Z,5.60
2023-02-19T22:51:37.502Z,5.00
2023-02-19T22:54:11.427Z,5.30
2023-02-19T22:57:02.057Z,4.90
2023-02-19T22:59:36.949Z,4.70
2023-02-19T23:02:07.580Z,5.70
2023-02-19T23:04:58.335Z,5.40
2023-02-19T23:07:28.716Z,6.00
2023-02-19T23:10:19.290Z,5.80
2023-02-19T23:12:59.818Z,5.40
2023-02-19T23:15:30.419Z,5.50
2023-02-19T23:18:00.855Z,5.70
2023-02-19T23:20:34.020Z,5.70
2023-02-19T23:23:04.582Z,5.40
2023-02-19T23:25:35.234Z,5.30
2023-02-19T23:28:06.049Z,6.00
2023-02-19T23:30:56.794Z,6.20
2023-02-19T23:33:27.428Z,5.00
2023-02-19T23:36:00.409Z,5.80
2023-02-19T23:38:30.942Z,5.20
2023-02-19T23:41:02.029Z,6.40
2023-02-19T23:43:41.058Z,6.00
2023-02-19T23:46:17.390Z,5.70
2023-02-19T23:49:01.242Z,5.80
2023-02-19T23:51:31.735Z,5.80
2023-02-19T23:54:04.872Z,5.30
2023-02-19T23:56:35.552Z,4.60
2023-02-19T23:59:08.735Z,5.20
